sensor_id;sensor_type;location;lat;lon;timestamp;P1;durP1;ratioP1;P2;durP2;ratioP2
20734;SDS011;10528;52.124;5.196;2023-04-03T00:01:11;3.42;;;1.67;;
20734;SDS011;10528;52.124;5.196;2023-04-03T00:03:39;2.25;;;1.42;;
20734;SDS011;10528;52.124;5.196;2023-04-03T00:06:07;3.50;;;1.73;;
20734;SDS011;10528;52.124;5.196;2023-04-03T00:08:37;4.15;;;1.50;;
20734;SDS011;10528;52.124;5.196;2023-04-03T00:11:06;5.28;;;1.70;;
20734;SDS011;10528;52.124;5.196;2023-04-03T00:13:34;4.20;;;2.03;;
20734;SDS011;10528;52.124;5.196;2023-04-03T00:16:02;3.22;;;1.60;;
20734;SDS011;10528;52.124;5.196;2023-04-03T00:18:30;2.47;;;1.70;;
20734;SDS011;10528;52.124;5.196;2023-04-03T00:20:57;3.65;;;2.13;;
20734;SDS011;10528;52.124;5.196;2023-04-03T00:23:24;4.68;;;1.75;;
20734;SDS011;10528;52.124;5.196;2023-04-03T00:25:51;3.03;;;1.50;;
20734;SDS011;10528;52.124;5.196;2023-04-03T00:28:19;7.03;;;1.52;;
20734;SDS011;10528;52.124;5.196;2023-04-03T00:30:48;4.00;;;1.75;;
20734;SDS011;10528;52.124;5.196;2023-04-03T00:33:16;3.42;;;1.42;;
20734;SDS011;10528;52.124;5.196;2023-04-03T00:35:43;4.13;;;1.75;;
20734;SDS011;10528;52.124;5.196;2023-04-03T00:38:10;3.83;;;1.77;;
20734;SDS011;10528;52.124;5.196;2023-04-03T00:40:38;3.20;;;1.30;;
20734;SDS011;10528;52.124;5.196;2023-04-03T00:43:13;5.38;;;1.58;;
20734;SDS011;10528;52.124;5.196;2023-04-03T00:45:48;3.10;;;1.50;;
20734;SDS011;10528;52.124;5.196;2023-04-03T00:48:22;2.85;;;1.60;;
20734;SDS011;10528;52.124;5.196;2023-04-03T00:51:02;3.25;;;1.60;;
20734;SDS011;10528;52.124;5.196;2023-04-03T00:53:33;3.72;;;1.52;;
20734;SDS011;10528;52.124;5.196;2023-04-03T00:56:34;3.03;;;1.48;;
20734;SDS011;10528;52.124;5.196;2023-04-03T00:59:04;4.20;;;1.63;;
20734;SDS011;10528;52.124;5.196;2023-04-03T01:01:44;4.07;;;1.83;;
20734;SDS011;10528;52.124;5.196;2023-04-03T01:04:26;3.70;;;1.40;;
20734;SDS011;10528;52.124;5.196;2023-04-03T01:07:07;3.13;;;1.48;;
20734;SDS011;10528;52.124;5.196;2023-04-03T01:09:38;4.30;;;1.67;;
20734;SDS011;10528;52.124;5.196;2023-04-03T01:12:26;4.10;;;2.05;;
20734;SDS011;10528;52.124;5.196;2023-04-03T01:14:58;3.40;;;1.60;;
20734;SDS011;10528;52.124;5.196;2023-04-03T01:17:40;3.83;;;1.85;;
20734;SDS011;10528;52.124;5.196;2023-04-03T01:26:22;2.85;;;1.50;;
20734;SDS011;10528;52.124;5.196;2023-04-03T01:28:50;3.35;;;1.60;;
20734;SDS011;10528;52.124;5.196;2023-04-03T01:31:22;2.88;;;1.60;;
20734;SDS011;10528;52.124;5.196;2023-04-03T01:33:55;4.53;;;1.60;;
20734;SDS011;10528;52.124;5.196;2023-04-03T01:36:27;4.15;;;1.63;;
20734;SDS011;10528;52.124;5.196;2023-04-03T01:38:57;3.63;;;1.95;;
20734;SDS011;10528;52.124;5.196;2023-04-03T01:41:26;5.03;;;1.45;;
20734;SDS011;10528;52.124;5.196;2023-04-03T01:44:00;2.35;;;1.58;;
20734;SDS011;10528;52.124;5.196;2023-04-03T01:46:28;3.42;;;1.70;;
20734;SDS011;10528;52.124;5.196;2023-04-03T01:48:54;3.40;;;1.73;;
20734;SDS011;10528;52.124;5.196;2023-04-03T01:51:22;5.07;;;1.88;;
20734;SDS011;10528;52.124;5.196;2023-04-03T01:53:48;2.83;;;1.65;;
20734;SDS011;10528;52.124;5.196;2023-04-03T01:56:15;5.22;;;1.40;;
20734;SDS011;10528;52.124;5.196;2023-04-03T01:58:43;4.78;;;1.60;;
20734;SDS011;10528;52.124;5.196;2023-04-03T02:01:10;4.95;;;1.90;;
20734;SDS011;10528;52.124;5.196;2023-04-03T02:03:37;4.13;;;1.58;;
20734;SDS011;10528;52.124;5.196;2023-04-03T02:06:04;4.15;;;2.28;;
20734;SDS011;10528;52.124;5.196;2023-04-03T02:08:32;4.15;;;2.20;;
20734;SDS011;10528;52.124;5.196;2023-04-03T02:10:59;4.90;;;1.70;;
20734;SDS011;10528;52.124;5.196;2023-04-03T02:13:26;2.95;;;1.67;;
20734;SDS011;10528;52.124;5.196;2023-04-03T02:15:52;4.18;;;1.70;;
20734;SDS011;10528;52.124;5.196;2023-04-03T02:18:19;5.30;;;1.85;;
20734;SDS011;10528;52.124;5.196;2023-04-03T02:20:46;3.10;;;1.63;;
20734;SDS011;10528;52.124;5.196;2023-04-03T02:23:14;4.07;;;1.85;;
20734;SDS011;10528;52.124;5.196;2023-04-03T02:25:40;3.33;;;1.83;;
20734;SDS011;10528;52.124;5.196;2023-04-03T02:28:07;4.32;;;2.33;;
20734;SDS011;10528;52.124;5.196;2023-04-03T02:30:34;4.72;;;1.80;;
20734;SDS011;10528;52.124;5.196;2023-04-03T02:33:03;4.20;;;1.80;;
20734;SDS011;10528;52.124;5.196;2023-04-03T02:35:30;3.28;;;1.50;;
20734;SDS011;10528;52.124;5.196;2023-04-03T02:37:58;3.40;;;1.85;;
20734;SDS011;10528;52.124;5.196;2023-04-03T02:40:24;5.35;;;1.40;;
20734;SDS011;10528;52.124;5.196;2023-04-03T02:42:51;3.78;;;1.90;;
20734;SDS011;10528;52.124;5.196;2023-04-03T02:45:19;6.97;;;2.00;;
20734;SDS011;10528;52.124;5.196;2023-04-03T02:47:46;3.92;;;1.70;;
20734;SDS011;10528;52.124;5.196;2023-04-03T02:50:13;4.63;;;1.95;;
20734;SDS011;10528;52.124;5.196;2023-04-03T02:52:40;5.03;;;1.60;;
20734;SDS011;10528;52.124;5.196;2023-04-03T02:55:07;3.60;;;1.52;;
20734;SDS011;10528;52.124;5.196;2023-04-03T02:57:34;3.42;;;1.67;;
20734;SDS011;10528;52.124;5.196;2023-04-03T03:00:02;5.68;;;2.08;;
20734;SDS011;10528;52.124;5.196;2023-04-03T03:02:29;4.00;;;1.90;;
20734;SDS011;10528;52.124;5.196;2023-04-03T03:04:56;3.45;;;1.60;;
20734;SDS011;10528;52.124;5.196;2023-04-03T03:07:23;3.58;;;1.80;;
20734;SDS011;10528;52.124;5.196;2023-04-03T03:09:50;4.70;;;1.90;;
20734;SDS011;10528;52.124;5.196;2023-04-03T03:12:17;3.38;;;1.88;;
20734;SDS011;10528;52.124;5.196;2023-04-03T03:14:48;4.10;;;2.10;;
20734;SDS011;10528;52.124;5.196;2023-04-03T03:17:15;4.05;;;1.95;;
20734;SDS011;10528;52.124;5.196;2023-04-03T03:19:43;6.80;;;2.20;;
20734;SDS011;10528;52.124;5.196;2023-04-03T03:22:11;4.38;;;1.80;;
20734;SDS011;10528;52.124;5.196;2023-04-03T03:24:38;5.05;;;1.80;;
20734;SDS011;10528;52.124;5.196;2023-04-03T03:27:05;5.88;;;2.17;;
20734;SDS011;10528;52.124;5.196;2023-04-03T03:29:32;3.40;;;1.50;;
20734;SDS011;10528;52.124;5.196;2023-04-03T03:31:59;4.38;;;1.50;;
20734;SDS011;10528;52.124;5.196;2023-04-03T03:34:26;3.67;;;1.75;;
20734;SDS011;10528;52.124;5.196;2023-04-03T03:36:53;3.42;;;1.83;;
20734;SDS011;10528;52.124;5.196;2023-04-03T03:39:20;3.80;;;1.60;;
20734;SDS011;10528;52.124;5.196;2023-04-03T03:41:47;3.35;;;1.70;;
20734;SDS011;10528;52.124;5.196;2023-04-03T03:44:15;4.05;;;2.08;;
20734;SDS011;10528;52.124;5.196;2023-04-03T03:46:42;5.65;;;1.58;;
20734;SDS011;10528;52.124;5.196;2023-04-03T03:49:09;3.88;;;1.88;;
20734;SDS011;10528;52.124;5.196;2023-04-03T03:51:38;4.50;;;2.10;;
20734;SDS011;10528;52.124;5.196;2023-04-03T03:54:06;3.72;;;1.80;;
20734;SDS011;10528;52.124;5.196;2023-04-03T03:56:34;5.53;;;1.95;;
20734;SDS011;10528;52.124;5.196;2023-04-03T03:59:01;5.43;;;1.88;;
20734;SDS011;10528;52.124;5.196;2023-04-03T04:01:30;4.70;;;2.10;;
20734;SDS011;10528;52.124;5.196;2023-04-03T04:03:58;5.90;;;2.17;;
20734;SDS011;10528;52.124;5.196;2023-04-03T04:06:29;7.85;;;2.05;;
20734;SDS011;10528;52.124;5.196;2023-04-03T04:09:00;2.78;;;1.75;;
20734;SDS011;10528;52.124;5.196;2023-04-03T04:11:28;4.18;;;1.77;;
20734;SDS011;10528;52.124;5.196;2023-04-03T04:13:56;4.80;;;2.20;;
20734;SDS011;10528;52.124;5.196;2023-04-03T04:16:25;6.30;;;3.03;;
20734;SDS011;10528;52.124;5.196;2023-04-03T04:18:54;4.72;;;2.05;;
20734;SDS011;10528;52.124;5.196;2023-04-03T04:21:22;5.45;;;2.40;;
20734;SDS011;10528;52.124;5.196;2023-04-03T04:23:51;4.10;;;1.80;;
20734;SDS011;10528;52.124;5.196;2023-04-03T04:26:19;5.25;;;2.33;;
20734;SDS011;10528;52.124;5.196;2023-04-03T04:28:46;4.22;;;2.15;;
20734;SDS011;10528;52.124;5.196;2023-04-03T04:31:14;6.63;;;2.30;;
20734;SDS011;10528;52.124;5.196;2023-04-03T04:33:40;4.53;;;2.42;;
20734;SDS011;10528;52.124;5.196;2023-04-03T04:36:10;5.13;;;2.08;;
20734;SDS011;10528;52.124;5.196;2023-04-03T04:38:37;3.03;;;2.13;;
20734;SDS011;10528;52.124;5.196;2023-04-03T04:41:05;5.03;;;1.98;;
20734;SDS011;10528;52.124;5.196;2023-04-03T04:43:32;3.95;;;1.92;;
20734;SDS011;10528;52.124;5.196;2023-04-03T04:46:09;6.20;;;1.83;;
20734;SDS011;10528;52.124;5.196;2023-04-03T04:48:45;4.38;;;2.05;;
20734;SDS011;10528;52.124;5.196;2023-04-03T04:51:13;4.80;;;2.30;;
20734;SDS011;10528;52.124;5.196;2023-04-03T04:53:41;5.55;;;2.30;;
20734;SDS011;10528;52.124;5.196;2023-04-03T04:56:11;5.43;;;2.20;;
20734;SDS011;10528;52.124;5.196;2023-04-03T04:58:39;5.00;;;2.20;;
20734;SDS011;10528;52.124;5.196;2023-04-03T05:01:07;5.03;;;2.20;;
20734;SDS011;10528;52.124;5.196;2023-04-03T05:03:45;4.57;;;2.17;;
20734;SDS011;10528;52.124;5.196;2023-04-03T05:06:14;6.25;;;2.53;;
20734;SDS011;10528;52.124;5.196;2023-04-03T05:08:41;5.70;;;2.15;;
20734;SDS011;10528;52.124;5.196;2023-04-03T05:11:08;5.30;;;2.30;;
20734;SDS011;10528;52.124;5.196;2023-04-03T05:13:35;3.42;;;2.15;;
20734;SDS011;10528;52.124;5.196;2023-04-03T05:16:02;6.22;;;2.45;;
20734;SDS011;10528;52.124;5.196;2023-04-03T05:18:29;6.18;;;1.98;;
20734;SDS011;10528;52.124;5.196;2023-04-03T05:20:59;6.85;;;2.55;;
20734;SDS011;10528;52.124;5.196;2023-04-03T05:23:26;7.68;;;2.50;;
20734;SDS011;10528;52.124;5.196;2023-04-03T05:25:54;5.68;;;2.22;;
20734;SDS011;10528;52.124;5.196;2023-04-03T05:28:21;5.15;;;2.40;;
20734;SDS011;10528;52.124;5.196;2023-04-03T05:30:57;6.63;;;2.65;;
20734;SDS011;10528;52.124;5.196;2023-04-03T05:33:31;6.95;;;2.60;;
20734;SDS011;10528;52.124;5.196;2023-04-03T05:36:02;4.82;;;2.33;;
20734;SDS011;10528;52.124;5.196;2023-04-03T05:38:34;6.43;;;2.65;;
20734;SDS011;10528;52.124;5.196;2023-04-03T05:41:01;5.90;;;2.28;;
20734;SDS011;10528;52.124;5.196;2023-04-03T05:43:28;5.43;;;2.47;;
20734;SDS011;10528;52.124;5.196;2023-04-03T05:45:56;4.13;;;2.42;;
20734;SDS011;10528;52.124;5.196;2023-04-03T05:48:25;4.97;;;2.28;;
20734;SDS011;10528;52.124;5.196;2023-04-03T05:50:52;8.70;;;2.58;;
20734;SDS011;10528;52.124;5.196;2023-04-03T05:53:25;5.18;;;2.63;;
20734;SDS011;10528;52.124;5.196;2023-04-03T05:55:59;6.78;;;2.92;;
20734;SDS011;10528;52.124;5.196;2023-04-03T05:58:27;4.70;;;2.28;;
20734;SDS011;10528;52.124;5.196;2023-04-03T06:00:55;6.05;;;2.88;;
20734;SDS011;10528;52.124;5.196;2023-04-03T06:03:22;6.85;;;2.05;;
20734;SDS011;10528;52.124;5.196;2023-04-03T06:05:50;6.60;;;2.50;;
20734;SDS011;10528;52.124;5.196;2023-04-03T06:08:17;5.22;;;2.55;;
20734;SDS011;10528;52.124;5.196;2023-04-03T06:10:44;6.93;;;2.72;;
20734;SDS011;10528;52.124;5.196;2023-04-03T06:13:11;7.93;;;3.10;;
20734;SDS011;10528;52.124;5.196;2023-04-03T06:15:39;7.40;;;2.63;;
20734;SDS011;10528;52.124;5.196;2023-04-03T06:18:07;6.03;;;2.30;;
20734;SDS011;10528;52.124;5.196;2023-04-03T06:20:35;4.63;;;2.05;;
20734;SDS011;10528;52.124;5.196;2023-04-03T06:23:02;8.40;;;2.75;;
20734;SDS011;10528;52.124;5.196;2023-04-03T06:25:29;6.63;;;2.28;;
20734;SDS011;10528;52.124;5.196;2023-04-03T06:27:57;8.73;;;2.60;;
20734;SDS011;10528;52.124;5.196;2023-04-03T06:30:24;6.43;;;2.30;;
20734;SDS011;10528;52.124;5.196;2023-04-03T06:32:51;6.28;;;2.03;;
20734;SDS011;10528;52.124;5.196;2023-04-03T06:35:18;5.05;;;2.42;;
20734;SDS011;10528;52.124;5.196;2023-04-03T06:37:45;7.35;;;2.20;;
20734;SDS011;10528;52.124;5.196;2023-04-03T06:40:15;6.68;;;2.20;;
20734;SDS011;10528;52.124;5.196;2023-04-03T06:42:50;4.85;;;1.83;;
20734;SDS011;10528;52.124;5.196;2023-04-03T06:45:18;5.53;;;2.28;;
20734;SDS011;10528;52.124;5.196;2023-04-03T06:47:46;8.40;;;2.35;;
20734;SDS011;10528;52.124;5.196;2023-04-03T06:50:13;5.05;;;2.03;;
20734;SDS011;10528;52.124;5.196;2023-04-03T06:52:41;6.25;;;1.75;;
20734;SDS011;10528;52.124;5.196;2023-04-03T06:55:08;6.35;;;2.15;;
20734;SDS011;10528;52.124;5.196;2023-04-03T06:57:36;5.32;;;1.90;;
20734;SDS011;10528;52.124;5.196;2023-04-03T07:00:04;7.80;;;2.30;;
20734;SDS011;10528;52.124;5.196;2023-04-03T07:02:33;3.95;;;1.92;;
20734;SDS011;10528;52.124;5.196;2023-04-03T07:05:00;9.23;;;2.55;;
20734;SDS011;10528;52.124;5.196;2023-04-03T07:07:27;3.88;;;1.83;;
20734;SDS011;10528;52.124;5.196;2023-04-03T07:09:54;6.28;;;2.22;;
20734;SDS011;10528;52.124;5.196;2023-04-03T07:12:21;4.32;;;1.83;;
20734;SDS011;10528;52.124;5.196;2023-04-03T07:14:47;7.82;;;2.13;;
20734;SDS011;10528;52.124;5.196;2023-04-03T07:17:15;5.70;;;1.60;;
20734;SDS011;10528;52.124;5.196;2023-04-03T07:19:42;3.97;;;1.85;;
20734;SDS011;10528;52.124;5.196;2023-04-03T07:22:09;5.78;;;2.10;;
20734;SDS011;10528;52.124;5.196;2023-04-03T07:24:37;6.88;;;1.92;;
20734;SDS011;10528;52.124;5.196;2023-04-03T07:27:04;7.20;;;2.45;;
20734;SDS011;10528;52.124;5.196;2023-04-03T07:29:31;10.50;;;2.50;;
20734;SDS011;10528;52.124;5.196;2023-04-03T07:31:58;5.90;;;2.55;;
20734;SDS011;10528;52.124;5.196;2023-04-03T07:34:25;5.35;;;2.33;;
20734;SDS011;10528;52.124;5.196;2023-04-03T07:36:52;6.53;;;2.42;;
20734;SDS011;10528;52.124;5.196;2023-04-03T07:39:19;6.72;;;1.98;;
20734;SDS011;10528;52.124;5.196;2023-04-03T07:41:46;6.00;;;2.42;;
20734;SDS011;10528;52.124;5.196;2023-04-03T07:44:13;6.78;;;2.28;;
20734;SDS011;10528;52.124;5.196;2023-04-03T07:46:40;5.68;;;1.70;;
20734;SDS011;10528;52.124;5.196;2023-04-03T07:49:08;6.88;;;2.10;;
20734;SDS011;10528;52.124;5.196;2023-04-03T07:51:36;6.60;;;2.20;;
20734;SDS011;10528;52.124;5.196;2023-04-03T07:54:03;5.15;;;1.75;;
20734;SDS011;10528;52.124;5.196;2023-04-03T07:56:30;7.53;;;2.38;;
20734;SDS011;10528;52.124;5.196;2023-04-03T07:58:57;5.15;;;2.03;;
20734;SDS011;10528;52.124;5.196;2023-04-03T08:01:24;7.72;;;1.70;;
20734;SDS011;10528;52.124;5.196;2023-04-03T08:03:51;5.18;;;1.65;;
20734;SDS011;10528;52.124;5.196;2023-04-03T08:06:18;5.35;;;2.05;;
20734;SDS011;10528;52.124;5.196;2023-04-03T08:09:03;6.22;;;1.98;;
20734;SDS011;10528;52.124;5.196;2023-04-03T08:11:30;6.30;;;2.10;;
20734;SDS011;10528;52.124;5.196;2023-04-03T08:13:57;4.15;;;1.40;;
20734;SDS011;10528;52.124;5.196;2023-04-03T08:16:24;4.13;;;1.77;;
20734;SDS011;10528;52.124;5.196;2023-04-03T08:18:54;5.50;;;1.65;;
20734;SDS011;10528;52.124;5.196;2023-04-03T08:21:21;4.70;;;1.70;;
20734;SDS011;10528;52.124;5.196;2023-04-03T08:23:49;4.00;;;1.52;;
20734;SDS011;10528;52.124;5.196;2023-04-03T08:26:18;3.35;;;1.52;;
20734;SDS011;10528;52.124;5.196;2023-04-03T08:28:48;2.10;;;1.10;;
20734;SDS011;10528;52.124;5.196;2023-04-03T08:31:17;4.30;;;1.35;;
20734;SDS011;10528;52.124;5.196;2023-04-03T08:33:46;2.78;;;1.30;;
20734;SDS011;10528;52.124;5.196;2023-04-03T08:36:20;3.22;;;1.10;;
20734;SDS011;10528;52.124;5.196;2023-04-03T08:38:50;3.92;;;1.65;;
20734;SDS011;10528;52.124;5.196;2023-04-03T08:41:34;4.80;;;1.52;;
20734;SDS011;10528;52.124;5.196;2023-04-03T08:49:58;4.18;;;1.45;;
20734;SDS011;10528;52.124;5.196;2023-04-03T08:57:59;2.90;;;1.33;;
20734;SDS011;10528;52.124;5.196;2023-04-03T09:01:14;3.63;;;1.15;;
20734;SDS011;10528;52.124;5.196;2023-04-03T09:03:49;3.90;;;1.40;;
20734;SDS011;10528;52.124;5.196;2023-04-03T09:09:02;3.05;;;1.10;;
20734;SDS011;10528;52.124;5.196;2023-04-03T09:12:04;4.53;;;1.30;;
20734;SDS011;10528;52.124;5.196;2023-04-03T09:14:57;3.38;;;1.40;;
20734;SDS011;10528;52.124;5.196;2023-04-03T09:17:37;3.22;;;0.98;;
20734;SDS011;10528;52.124;5.196;2023-04-03T09:22:57;1.38;;;0.70;;
20734;SDS011;10528;52.124;5.196;2023-04-03T09:25:25;1.83;;;0.82;;
20734;SDS011;10528;52.124;5.196;2023-04-03T09:28:00;1.27;;;0.68;;
20734;SDS011;10528;52.124;5.196;2023-04-03T09:30:36;2.22;;;0.90;;
20734;SDS011;10528;52.124;5.196;2023-04-03T09:33:04;2.65;;;0.70;;
20734;SDS011;10528;52.124;5.196;2023-04-03T09:35:34;1.63;;;0.63;;
20734;SDS011;10528;52.124;5.196;2023-04-03T09:43:51;1.50;;;0.80;;
20734;SDS011;10528;52.124;5.196;2023-04-03T09:49:01;1.35;;;0.50;;
20734;SDS011;10528;52.124;5.196;2023-04-03T09:51:35;3.25;;;0.75;;
20734;SDS011;10528;52.124;5.196;2023-04-03T09:57:07;1.17;;;0.50;;
20734;SDS011;10528;52.124;5.196;2023-04-03T10:00:19;1.27;;;0.60;;
20734;SDS011;10528;52.124;5.196;2023-04-03T10:02:49;2.03;;;0.70;;
20734;SDS011;10528;52.124;5.196;2023-04-03T10:05:34;1.08;;;0.65;;
20734;SDS011;10528;52.124;5.196;2023-04-03T10:08:11;1.92;;;0.82;;
20734;SDS011;10528;52.124;5.196;2023-04-03T10:10:42;2.00;;;0.80;;
20734;SDS011;10528;52.124;5.196;2023-04-03T10:13:14;1.27;;;0.60;;
20734;SDS011;10528;52.124;5.196;2023-04-03T10:18:48;0.60;;;0.47;;
20734;SDS011;10528;52.124;5.196;2023-04-03T10:24:39;3.65;;;0.50;;
20734;SDS011;10528;52.124;5.196;2023-04-03T10:27:26;1.73;;;0.63;;
20734;SDS011;10528;52.124;5.196;2023-04-03T10:30:15;1.10;;;0.40;;
20734;SDS011;10528;52.124;5.196;2023-04-03T10:39:04;1.63;;;0.60;;
20734;SDS011;10528;52.124;5.196;2023-04-03T10:45:07;0.55;;;0.38;;
20734;SDS011;10528;52.124;5.196;2023-04-03T10:47:40;1.60;;;0.60;;
20734;SDS011;10528;52.124;5.196;2023-04-03T10:56:15;1.25;;;0.50;;
20734;SDS011;10528;52.124;5.196;2023-04-03T10:58:53;1.70;;;0.50;;
20734;SDS011;10528;52.124;5.196;2023-04-03T11:01:26;1.20;;;0.50;;
20734;SDS011;10528;52.124;5.196;2023-04-03T11:04:02;0.85;;;0.50;;
20734;SDS011;10528;52.124;5.196;2023-04-03T11:06:34;1.42;;;0.70;;
20734;SDS011;10528;52.124;5.196;2023-04-03T11:12:01;0.75;;;0.30;;
20734;SDS011;10528;52.124;5.196;2023-04-03T11:15:15;1.20;;;0.47;;
20734;SDS011;10528;52.124;5.196;2023-04-03T11:17:54;1.67;;;0.52;;
20734;SDS011;10528;52.124;5.196;2023-04-03T11:20:37;2.33;;;0.60;;
20734;SDS011;10528;52.124;5.196;2023-04-03T11:26:16;1.42;;;0.63;;
20734;SDS011;10528;52.124;5.196;2023-04-03T11:28:51;1.25;;;0.50;;
20734;SDS011;10528;52.124;5.196;2023-04-03T11:37:00;1.02;;;0.55;;
20734;SDS011;10528;52.124;5.196;2023-04-03T11:39:37;7.60;;;1.00;;
20734;SDS011;10528;52.124;5.196;2023-04-03T11:45:16;1.88;;;0.90;;
20734;SDS011;10528;52.124;5.196;2023-04-03T11:48:00;2.08;;;0.73;;
20734;SDS011;10528;52.124;5.196;2023-04-03T11:50:53;2.92;;;0.70;;
20734;SDS011;10528;52.124;5.196;2023-04-03T11:53:35;8.68;;;0.90;;
20734;SDS011;10528;52.124;5.196;2023-04-03T12:01:46;1.73;;;0.65;;
20734;SDS011;10528;52.124;5.196;2023-04-03T12:04:17;2.08;;;0.82;;
20734;SDS011;10528;52.124;5.196;2023-04-03T12:12:47;1.52;;;0.70;;
20734;SDS011;10528;52.124;5.196;2023-04-03T12:21:17;2.00;;;0.70;;
20734;SDS011;10528;52.124;5.196;2023-04-03T12:24:36;3.10;;;1.20;;
20734;SDS011;10528;52.124;5.196;2023-04-03T12:29:46;3.35;;;0.95;;
20734;SDS011;10528;52.124;5.196;2023-04-03T12:35:17;2.53;;;0.80;;
20734;SDS011;10528;52.124;5.196;2023-04-03T12:41:18;3.65;;;0.80;;
20734;SDS011;10528;52.124;5.196;2023-04-03T12:46:53;3.80;;;1.00;;
20734;SDS011;10528;52.124;5.196;2023-04-03T12:49:24;2.13;;;0.73;;
20734;SDS011;10528;52.124;5.196;2023-04-03T12:51:56;2.05;;;1.00;;
20734;SDS011;10528;52.124;5.196;2023-04-03T12:54:26;1.63;;;0.70;;
20734;SDS011;10528;52.124;5.196;2023-04-03T12:57:16;2.30;;;0.88;;
20734;SDS011;10528;52.124;5.196;2023-04-03T12:59:47;1.70;;;0.90;;
20734;SDS011;10528;52.124;5.196;2023-04-03T13:04:58;1.33;;;0.75;;
20734;SDS011;10528;52.124;5.196;2023-04-03T13:07:37;1.45;;;0.85;;
20734;SDS011;10528;52.124;5.196;2023-04-03T13:12:35;4.60;;;0.98;;
20734;SDS011;10528;52.124;5.196;2023-04-03T13:15:22;4.70;;;1.02;;
20734;SDS011;10528;52.124;5.196;2023-04-03T13:17:56;2.15;;;0.80;;
20734;SDS011;10528;52.124;5.196;2023-04-03T13:20:30;2.42;;;0.70;;
20734;SDS011;10528;52.124;5.196;2023-04-03T13:23:04;3.33;;;1.08;;
20734;SDS011;10528;52.124;5.196;2023-04-03T13:25:40;5.22;;;1.10;;
20734;SDS011;10528;52.124;5.196;2023-04-03T13:28:12;2.13;;;0.70;;
20734;SDS011;10528;52.124;5.196;2023-04-03T13:31:19;2.47;;;1.15;;
20734;SDS011;10528;52.124;5.196;2023-04-03T13:34:05;2.10;;;0.90;;
20734;SDS011;10528;52.124;5.196;2023-04-03T13:36:39;2.75;;;0.85;;
20734;SDS011;10528;52.124;5.196;2023-04-03T13:39:23;1.83;;;0.93;;
20734;SDS011;10528;52.124;5.196;2023-04-03T13:41:57;2.50;;;1.13;;
20734;SDS011;10528;52.124;5.196;2023-04-03T13:44:47;6.35;;;1.40;;
20734;SDS011;10528;52.124;5.196;2023-04-03T13:47:22;2.15;;;0.90;;
20734;SDS011;10528;52.124;5.196;2023-04-03T13:52:53;3.72;;;1.00;;
20734;SDS011;10528;52.124;5.196;2023-04-03T13:55:52;1.80;;;1.00;;
20734;SDS011;10528;52.124;5.196;2023-04-03T13:58:25;2.60;;;0.88;;
20734;SDS011;10528;52.124;5.196;2023-04-03T14:00:56;1.42;;;0.90;;
20734;SDS011;10528;52.124;5.196;2023-04-03T14:03:36;4.82;;;0.98;;
20734;SDS011;10528;52.124;5.196;2023-04-03T14:06:16;2.85;;;1.10;;
20734;SDS011;10528;52.124;5.196;2023-04-03T14:08:43;5.13;;;1.10;;
20734;SDS011;10528;52.124;5.196;2023-04-03T14:11:19;2.88;;;1.02;;
20734;SDS011;10528;52.124;5.196;2023-04-03T14:13:50;2.50;;;0.98;;
20734;SDS011;10528;52.124;5.196;2023-04-03T14:16:18;3.50;;;0.93;;
20734;SDS011;10528;52.124;5.196;2023-04-03T14:18:50;3.03;;;0.95;;
20734;SDS011;10528;52.124;5.196;2023-04-03T14:21:18;3.13;;;1.30;;
20734;SDS011;10528;52.124;5.196;2023-04-03T14:23:47;3.47;;;1.10;;
20734;SDS011;10528;52.124;5.196;2023-04-03T14:26:16;3.97;;;1.27;;
20734;SDS011;10528;52.124;5.196;2023-04-03T14:28:48;1.55;;;0.80;;
20734;SDS011;10528;52.124;5.196;2023-04-03T14:31:18;2.15;;;0.90;;
20734;SDS011;10528;52.124;5.196;2023-04-03T14:33:46;2.85;;;0.98;;
20734;SDS011;10528;52.124;5.196;2023-04-03T14:36:18;2.33;;;1.10;;
20734;SDS011;10528;52.124;5.196;2023-04-03T14:38:49;5.35;;;1.10;;
20734;SDS011;10528;52.124;5.196;2023-04-03T14:41:18;1.88;;;1.00;;
20734;SDS011;10528;52.124;5.196;2023-04-03T14:43:49;3.42;;;1.02;;
20734;SDS011;10528;52.124;5.196;2023-04-03T14:46:30;2.22;;;1.00;;
20734;SDS011;10528;52.124;5.196;2023-04-03T14:49:22;4.32;;;1.30;;
20734;SDS011;10528;52.124;5.196;2023-04-03T14:51:54;6.53;;;1.35;;
20734;SDS011;10528;52.124;5.196;2023-04-03T14:54:23;3.03;;;1.05;;
20734;SDS011;10528;52.124;5.196;2023-04-03T14:57:11;3.63;;;1.30;;
20734;SDS011;10528;52.124;5.196;2023-04-03T14:59:41;3.25;;;1.10;;
20734;SDS011;10528;52.124;5.196;2023-04-03T15:05:02;4.85;;;1.30;;
20734;SDS011;10528;52.124;5.196;2023-04-03T15:07:33;2.70;;;1.10;;
20734;SDS011;10528;52.124;5.196;2023-04-03T15:10:20;3.55;;;1.27;;
20734;SDS011;10528;52.124;5.196;2023-04-03T15:12:50;4.15;;;1.20;;
20734;SDS011;10528;52.124;5.196;2023-04-03T15:15:19;3.90;;;1.15;;
20734;SDS011;10528;52.124;5.196;2023-04-03T15:17:48;4.32;;;1.20;;
20734;SDS011;10528;52.124;5.196;2023-04-03T15:20:22;2.72;;;1.30;;
20734;SDS011;10528;52.124;5.196;2023-04-03T15:22:52;2.63;;;1.17;;
20734;SDS011;10528;52.124;5.196;2023-04-03T15:25:22;2.00;;;1.10;;
20734;SDS011;10528;52.124;5.196;2023-04-03T15:27:52;3.45;;;1.33;;
20734;SDS011;10528;52.124;5.196;2023-04-03T15:30:20;2.90;;;1.40;;
20734;SDS011;10528;52.124;5.196;2023-04-03T15:32:47;4.45;;;1.38;;
20734;SDS011;10528;52.124;5.196;2023-04-03T15:35:16;2.97;;;1.17;;
20734;SDS011;10528;52.124;5.196;2023-04-03T15:37:44;5.18;;;1.52;;
20734;SDS011;10528;52.124;5.196;2023-04-03T15:40:11;5.20;;;1.77;;
20734;SDS011;10528;52.124;5.196;2023-04-03T15:42:38;5.68;;;1.70;;
20734;SDS011;10528;52.124;5.196;2023-04-03T15:45:06;3.67;;;1.20;;
20734;SDS011;10528;52.124;5.196;2023-04-03T15:47:34;5.63;;;1.98;;
20734;SDS011;10528;52.124;5.196;2023-04-03T15:50:01;2.97;;;1.20;;
20734;SDS011;10528;52.124;5.196;2023-04-03T15:52:32;2.88;;;1.30;;
20734;SDS011;10528;52.124;5.196;2023-04-03T15:54:58;3.33;;;1.30;;
20734;SDS011;10528;52.124;5.196;2023-04-03T15:57:25;6.07;;;1.40;;
20734;SDS011;10528;52.124;5.196;2023-04-03T15:59:53;3.42;;;1.17;;
20734;SDS011;10528;52.124;5.196;2023-04-03T16:02:20;3.58;;;1.20;;
20734;SDS011;10528;52.124;5.196;2023-04-03T16:04:47;3.30;;;1.33;;
20734;SDS011;10528;52.124;5.196;2023-04-03T16:07:15;3.25;;;1.42;;
20734;SDS011;10528;52.124;5.196;2023-04-03T16:09:42;3.72;;;1.42;;
20734;SDS011;10528;52.124;5.196;2023-04-03T16:12:09;3.58;;;1.50;;
20734;SDS011;10528;52.124;5.196;2023-04-03T16:14:36;4.38;;;1.33;;
20734;SDS011;10528;52.124;5.196;2023-04-03T16:17:03;6.97;;;1.60;;
20734;SDS011;10528;52.124;5.196;2023-04-03T16:19:29;4.03;;;1.52;;
20734;SDS011;10528;52.124;5.196;2023-04-03T16:21:56;2.60;;;1.40;;
20734;SDS011;10528;52.124;5.196;2023-04-03T16:24:24;2.85;;;1.17;;
20734;SDS011;10528;52.124;5.196;2023-04-03T16:26:51;4.50;;;1.42;;
20734;SDS011;10528;52.124;5.196;2023-04-03T16:29:19;4.68;;;1.50;;
20734;SDS011;10528;52.124;5.196;2023-04-03T16:31:46;3.78;;;1.08;;
20734;SDS011;10528;52.124;5.196;2023-04-03T16:34:13;5.80;;;2.50;;
20734;SDS011;10528;52.124;5.196;2023-04-03T16:36:40;3.95;;;1.55;;
20734;SDS011;10528;52.124;5.196;2023-04-03T16:39:08;3.78;;;1.30;;
20734;SDS011;10528;52.124;5.196;2023-04-03T16:41:36;4.60;;;1.20;;
20734;SDS011;10528;52.124;5.196;2023-04-03T16:44:03;4.15;;;1.67;;
20734;SDS011;10528;52.124;5.196;2023-04-03T16:46:30;4.97;;;1.60;;
20734;SDS011;10528;52.124;5.196;2023-04-03T16:48:57;4.00;;;1.70;;
20734;SDS011;10528;52.124;5.196;2023-04-03T16:51:23;3.58;;;1.35;;
20734;SDS011;10528;52.124;5.196;2023-04-03T16:53:51;4.53;;;1.13;;
20734;SDS011;10528;52.124;5.196;2023-04-03T16:56:17;4.50;;;1.50;;
20734;SDS011;10528;52.124;5.196;2023-04-03T16:58:45;3.90;;;1.38;;
20734;SDS011;10528;52.124;5.196;2023-04-03T17:01:16;5.97;;;1.52;;
20734;SDS011;10528;52.124;5.196;2023-04-03T17:03:44;5.50;;;1.40;;